createdAt,value
2022-08-19T00:00:43.546Z,22.20
2022-08-19T00:01:43.615Z,22.14
2022-08-19T00:02:50.135Z,22.06
2022-08-19T00:03:43.431Z,22.06
2022-08-19T00:04:43.449Z,22.07
2022-08-19T00:05:52.510Z,22.06
2022-08-19T00:06:43.396Z,22.11
2022-08-19T00:07:43.461Z,22.10
2022-08-19T00:08:43.343Z,21.99
2022-08-19T00:09:43.275Z,22.06
2022-08-19T00:10:43.281Z,22.00
2022-08-19T00:11:43.892Z,22.02
2022-08-19T00:12:47.016Z,21.96
2022-08-19T00:13:43.229Z,21.99
2022-08-19T00:14:43.152Z,21.98
2022-08-19T00:15:43.136Z,21.95
2022-08-19T00:16:43.108Z,21.99
2022-08-19T00:17:43.202Z,22.04
2022-08-19T00:18:43.039Z,21.92
2022-08-19T00:19:43.038Z,22.00
2022-08-19T00:20:43.020Z,21.95
2022-08-19T00:21:42.966Z,21.85
2022-08-19T00:22:42.943Z,21.92
2022-08-19T00:23:43.021Z,21.88
2022-08-19T00:24:42.891Z,21.93
2022-08-19T00:25:42.887Z,21.93
2022-08-19T00:26:42.872Z,21.92
2022-08-19T00:27:42.812Z,21.89
2022-08-19T00:28:42.799Z,21.92
2022-08-19T00:29:42.887Z,21.98
2022-08-19T00:30:43.536Z,21.83
2022-08-19T00:31:42.715Z,21.77
2022-08-19T00:32:42.705Z,21.80
2022-08-19T00:33:42.636Z,21.69
2022-08-19T00:34:42.689Z,21.57
2022-08-19T00:35:42.661Z,21.54
2022-08-19T00:36:42.586Z,21.60
2022-08-19T00:37:42.559Z,21.54
2022-08-19T00:38:42.538Z,21.45
2022-08-19T00:39:42.609Z,21.48
2022-08-19T00:40:43.059Z,21.35
2022-08-19T00:41:42.451Z,21.39
2022-08-19T00:42:42.422Z,21.37
2022-08-19T00:43:42.425Z,21.27
2022-08-19T00:44:42.362Z,21.24
2022-08-19T00:45:42.431Z,21.30
2022-08-19T00:46:42.314Z,21.22
2022-08-19T00:47:42.273Z,21.17
2022-08-19T00:48:42.243Z,21.05
2022-08-19T00:49:42.901Z,21.11
2022-08-19T00:50:51.953Z,21.09
2022-08-19T00:51:42.220Z,21.12
2022-08-19T00:52:42.177Z,21.05
2022-08-19T00:53:42.103Z,21.12
2022-08-19T00:54:42.073Z,21.09
2022-08-19T00:55:42.071Z,21.06
2022-08-19T00:56:42.073Z,20.97
2022-08-19T00:57:41.991Z,20.95
2022-08-19T00:58:42.001Z,20.90
2022-08-19T01:00:01.091Z,20.85
2022-08-19T01:00:41.960Z,20.92
2022-08-19T01:01:42.048Z,20.96
2022-08-19T01:02:41.930Z,20.93
2022-08-19T01:03:58.077Z,20.87
2022-08-19T01:04:41.830Z,20.96
2022-08-19T01:05:41.841Z,20.81
2022-08-19T01:06:41.751Z,20.81
2022-08-19T01:07:42.076Z,20.95
2022-08-19T01:08:41.736Z,20.93
2022-08-19T01:09:41.701Z,20.96
2022-08-19T01:10:41.667Z,20.95
2022-08-19T01:11:41.614Z,20.88
2022-08-19T01:12:41.723Z,20.92
2022-08-19T01:13:45.608Z,20.85
2022-08-19T01:14:42.523Z,20.97
2022-08-19T01:15:41.504Z,21.00
2022-08-19T01:16:41.503Z,20.92
2022-08-19T01:17:41.448Z,20.96
2022-08-19T01:18:41.514Z,21.02
2022-08-19T01:19:44.079Z,20.93
2022-08-19T01:20:41.397Z,21.03
2022-08-19T01:21:41.352Z,21.03
2022-08-19T01:22:41.321Z,21.09
2022-08-19T01:23:41.334Z,21.05
2022-08-19T01:24:42.251Z,20.99
2022-08-19T01:25:41.246Z,21.02
2022-08-19T01:26:41.237Z,21.11
2022-08-19T01:27:43.129Z,21.02
2022-08-19T01:28:42.415Z,21.11
2022-08-19T01:29:41.213Z,21.05
2022-08-19T01:30:44.228Z,21.09
2022-08-19T01:31:41.097Z,21.06
2022-08-19T01:32:41.067Z,21.12
2022-08-19T01:33:41.029Z,21.05
2022-08-19T01:34:41.101Z,21.03
2022-08-19T01:35:41.091Z,21.03
2022-08-19T01:36:40.942Z,21.12
2022-08-19T01:37:40.949Z,21.06
2022-08-19T01:38:44.396Z,20.93
2022-08-19T01:39:40.886Z,20.81
2022-08-19T01:40:40.916Z,20.66
2022-08-19T01:41:40.899Z,20.65
2022-08-19T01:42:40.802Z,20.52
2022-08-19T01:44:09.866Z,20.55
2022-08-19T01:44:40.752Z,20.48
2022-08-19T01:45:40.722Z,20.47
2022-08-19T01:46:40.764Z,20.50
2022-08-19T01:47:41.183Z,20.48
2022-08-19T01:48:40.648Z,20.44
2022-08-19T01:49:40.622Z,20.41
2022-08-19T01:50:40.595Z,20.41
2022-08-19T01:51:40.653Z,20.39
2022-08-19T01:52:40.573Z,20.43
2022-08-19T01:53:40.481Z,20.40
2022-08-19T01:54:40.464Z,20.40
2022-08-19T01:55:41.351Z,20.34
2022-08-19T01:56:40.405Z,20.29
2022-08-19T01:57:40.450Z,20.43
2022-08-19T01:58:40.343Z,20.40
2022-08-19T01:59:40.320Z,20.34
2022-08-19T02:00:40.304Z,20.37
2022-08-19T02:01:40.294Z,20.48
2022-08-19T02:02:40.238Z,20.36
2022-08-19T02:03:40.315Z,20.34
2022-08-19T02:04:40.192Z,20.25
2022-08-19T02:05:40.168Z,20.31
2022-08-19T02:06:40.134Z,20.34
2022-08-19T02:07:40.132Z,20.29
2022-08-19T02:08:40.105Z,20.29
2022-08-19T02:09:40.118Z,20.25
2022-08-19T02:10:40.004Z,20.29
2022-08-19T02:11:39.994Z,20.25
2022-08-19T02:12:39.967Z,20.29
2022-08-19T02:13:40.017Z,20.18
2022-08-19T02:14:39.891Z,20.26
2022-08-19T02:15:39.955Z,20.16
2022-08-19T02:16:39.836Z,20.19
2022-08-19T02:17:39.817Z,20.22
2022-08-19T02:18:39.805Z,20.28
2022-08-19T02:19:41.148Z,20.24
2022-08-19T02:20:39.723Z,20.25
2022-08-19T02:21:39.740Z,20.18
2022-08-19T02:22:39.666Z,20.13
2022-08-19T02:23:39.690Z,20.14
2022-08-19T02:24:39.619Z,20.11
2022-08-19T02:25:39.710Z,20.14
2022-08-19T02:26:39.563Z,20.21
2022-08-19T02:27:39.562Z,20.11
2022-08-19T02:28:39.500Z,20.14
2022-08-19T02:29:39.472Z,20.31
2022-08-19T02:30:39.451Z,20.16
2022-08-19T02:31:39.479Z,20.22
2022-08-19T02:32:44.340Z,20.13
2022-08-19T02:33:39.366Z,20.16
2022-08-19T02:34:39.531Z,20.22
2022-08-19T02:35:39.319Z,20.18
2022-08-19T02:36:42.420Z,20.16
2022-08-19T02:37:39.339Z,20.18
2022-08-19T02:38:39.219Z,20.19
2022-08-19T02:39:39.247Z,20.21
2022-08-19T02:40:39.231Z,20.18
2022-08-19T02:41:39.156Z,20.13
2022-08-19T02:42:39.136Z,20.19
2022-08-19T02:43:39.092Z,20.22
2022-08-19T02:44:39.089Z,20.22
2022-08-19T02:45:40.405Z,20.21
2022-08-19T02:46:39.013Z,20.19
2022-08-19T02:47:39.022Z,20.16
2022-08-19T02:48:38.952Z,20.19
2022-08-19T02:49:38.920Z,20.25
2022-08-19T02:50:38.887Z,20.14
2022-08-19T02:51:38.934Z,20.21
2022-08-19T02:52:38.847Z,20.28
2022-08-19T02:53:38.804Z,20.24
2022-08-19T02:54:38.763Z,20.21
2022-08-19T02:55:46.137Z,20.18
2022-08-19T02:56:38.788Z,20.14
2022-08-19T02:57:38.691Z,20.18
2022-08-19T02:58:38.654Z,20.22
2022-08-19T02:59:38.637Z,20.14
2022-08-19T03:00:39.654Z,20.18
2022-08-19T03:01:38.690Z,20.22
2022-08-19T03:02:38.566Z,20.11
2022-08-19T03:03:38.514Z,20.19
2022-08-19T03:04:38.503Z,20.16
2022-08-19T03:05:55.677Z,20.14
2022-08-19T03:06:38.679Z,20.16
2022-08-19T03:07:38.414Z,20.18
2022-08-19T03:08:38.397Z,20.22
2022-08-19T03:09:38.373Z,20.19
2022-08-19T03:10:38.377Z,20.18
2022-08-19T03:11:38.309Z,20.19
2022-08-19T03:12:38.393Z,20.16
2022-08-19T03:13:38.263Z,20.18
2022-08-19T03:14:38.256Z,20.14
2022-08-19T03:15:38.236Z,20.22
2022-08-19T03:16:38.210Z,20.13
2022-08-19T03:17:38.249Z,20.19
2022-08-19T03:18:38.137Z,20.19
2022-08-19T03:19:38.089Z,20.21
2022-08-19T03:20:38.076Z,20.13
2022-08-19T03:21:38.020Z,20.21
2022-08-19T03:22:37.999Z,20.22
2022-08-19T03:23:38.019Z,20.16
2022-08-19T03:24:37.945Z,20.19
2022-08-19T03:25:37.917Z,20.25
2022-08-19T03:26:37.915Z,20.18
2022-08-19T03:27:37.878Z,20.21
2022-08-19T03:28:37.973Z,20.19
2022-08-19T03:29:44.001Z,20.18
2022-08-19T03:30:37.766Z,20.14
2022-08-19T03:31:42.066Z,20.26
2022-08-19T03:32:37.738Z,20.25
2022-08-19T03:33:37.776Z,20.21
2022-08-19T03:34:37.708Z,20.24
2022-08-19T03:35:37.644Z,20.14
2022-08-19T03:36:37.632Z,20.13
2022-08-19T03:37:37.580Z,20.25
2022-08-19T03:38:37.679Z,20.16
2022-08-19T03:39:37.578Z,20.19
2022-08-19T03:40:37.492Z,20.11
2022-08-19T03:41:44.898Z,20.13
2022-08-19T03:42:48.929Z,20.14
2022-08-19T03:43:37.422Z,20.14
2022-08-19T03:44:37.465Z,20.11
2022-08-19T03:45:39.455Z,20.14
2022-08-19T03:46:37.351Z,20.14
2022-08-19T03:47:37.296Z,20.09
2022-08-19T03:48:37.263Z,20.13
2022-08-19T03:49:37.356Z,20.09
2022-08-19T03:50:37.283Z,20.14
2022-08-19T03:51:37.190Z,20.16
2022-08-19T03:52:37.177Z,20.13
2022-08-19T03:53:37.129Z,20.09
2022-08-19T03:54:37.114Z,20.11
2022-08-19T03:55:37.218Z,20.10
2022-08-19T03:56:37.057Z,20.10
2022-08-19T03:57:37.015Z,20.13
2022-08-19T03:58:37.007Z,20.18
2022-08-19T03:59:36.982Z,20.11
2022-08-19T04:00:36.979Z,20.19
2022-08-19T04:01:37.072Z,20.19
2022-08-19T04:02:36.902Z,20.19
2022-08-19T04:03:36.847Z,20.16
2022-08-19T04:04:36.914Z,20.16
2022-08-19T04:05:36.822Z,20.25
2022-08-19T04:06:39.521Z,20.26
2022-08-19T04:07:36.835Z,20.32
2022-08-19T04:08:36.804Z,20.25
2022-08-19T04:09:36.680Z,20.28
2022-08-19T04:10:36.666Z,20.31
2022-08-19T04:11:43.889Z,20.32
2022-08-19T04:12:36.624Z,20.24
2022-08-19T04:13:36.667Z,20.40
2022-08-19T04:14:36.644Z,20.31
2022-08-19T04:15:36.516Z,20.40
2022-08-19T04:16:36.512Z,20.36
2022-08-19T04:17:36.472Z,20.40
2022-08-19T04:18:36.606Z,20.36
2022-08-19T04:19:37.079Z,20.43
2022-08-19T04:20:36.428Z,20.41
2022-08-19T04:21:36.379Z,20.40
2022-08-19T04:22:36.351Z,20.47
2022-08-19T04:23:36.291Z,20.39
2022-08-19T04:24:36.359Z,20.52
2022-08-19T04:25:36.242Z,20.51
2022-08-19T04:26:36.224Z,20.56
2022-08-19T04:27:36.192Z,20.58
2022-08-19T04:28:36.152Z,20.58
2022-08-19T04:29:36.232Z,20.51
2022-08-19T04:30:36.101Z,20.62
2022-08-19T04:31:36.098Z,20.60
2022-08-19T04:32:36.047Z,20.65
2022-08-19T04:33:36.028Z,20.58
2022-08-19T04:34:36.008Z,20.62
2022-08-19T04:35:36.019Z,20.60
2022-08-19T04:36:35.956Z,20.63
2022-08-19T04:37:35.948Z,20.65
2022-08-19T04:38:35.875Z,20.63
2022-08-19T04:39:35.906Z,20.60
2022-08-19T04:40:35.968Z,20.67
2022-08-19T04:41:35.796Z,20.69
2022-08-19T04:42:35.774Z,20.59
2022-08-19T04:43:35.759Z,20.65
2022-08-19T04:44:35.729Z,20.52
2022-08-19T04:45:43.491Z,20.62
2022-08-19T04:46:39.934Z,20.66
2022-08-19T04:47:47.470Z,20.62
2022-08-19T04:48:35.612Z,20.60
2022-08-19T04:49:35.577Z,20.60
2022-08-19T04:50:35.573Z,20.72
2022-08-19T04:51:35.576Z,20.60
2022-08-19T04:52:35.515Z,20.66
2022-08-19T04:53:37.670Z,20.62
2022-08-19T04:54:38.587Z,20.66
2022-08-19T04:55:38.268Z,20.72
2022-08-19T04:56:35.523Z,20.67
2022-08-19T04:57:35.374Z,20.70
2022-08-19T04:58:35.322Z,20.69
2022-08-19T04:59:35.322Z,20.67
2022-08-19T05:00:35.270Z,20.67
2022-08-19T05:01:35.301Z,20.69
2022-08-19T05:02:35.315Z,20.77
2022-08-19T05:03:35.188Z,20.77
2022-08-19T05:04:35.189Z,20.82
2022-08-19T05:05:44.801Z,20.90
2022-08-19T05:06:35.121Z,20.90
2022-08-19T05:07:35.097Z,20.97
2022-08-19T05:08:35.181Z,20.99
2022-08-19T05:09:58.469Z,20.96
2022-08-19T05:10:34.996Z,21.02
2022-08-19T05:11:34.968Z,20.97
2022-08-19T05:12:34.942Z,21.03
2022-08-19T05:13:34.919Z,21.02
2022-08-19T05:14:35.014Z,20.95
2022-08-19T05:15:34.869Z,21.03
2022-08-19T05:16:34.865Z,21.09
2022-08-19T05:17:38.370Z,21.03
2022-08-19T05:18:34.783Z,21.00
2022-08-19T05:19:34.748Z,21.09
2022-08-19T05:20:34.806Z,21.09
2022-08-19T05:21:34.726Z,21.02
2022-08-19T05:22:34.684Z,21.02
2022-08-19T05:23:34.646Z,21.07
2022-08-19T05:24:34.617Z,21.03
2022-08-19T05:25:34.674Z,21.14
2022-08-19T05:26:34.563Z,21.07
2022-08-19T05:27:34.535Z,21.03
2022-08-19T05:28:34.521Z,21.05
2022-08-19T05:29:36.436Z,21.05
2022-08-19T05:30:46.851Z,21.03
2022-08-19T05:31:34.577Z,21.06
2022-08-19T05:32:34.406Z,21.17
2022-08-19T05:33:34.372Z,21.15
2022-08-19T05:34:34.348Z,21.06
2022-08-19T05:35:34.670Z,21.18
2022-08-19T05:36:34.308Z,21.21
2022-08-19T05:37:34.334Z,21.24
2022-08-19T05:38:34.239Z,21.06
2022-08-19T05:39:34.238Z,21.17
2022-08-19T05:40:34.186Z,21.24
2022-08-19T05:41:34.169Z,21.21
2022-08-19T05:42:34.213Z,21.27
2022-08-19T05:43:34.137Z,21.30
2022-08-19T05:44:34.076Z,21.37
2022-08-19T05:45:34.056Z,21.37
2022-08-19T05:46:34.025Z,21.39
2022-08-19T05:47:34.074Z,21.43
2022-08-19T05:48:33.973Z,21.43
2022-08-19T05:49:33.953Z,21.52
2022-08-19T05:50:33.936Z,21.58
2022-08-19T05:51:33.923Z,21.62
2022-08-19T05:52:33.870Z,21.57
2022-08-19T05:53:33.902Z,21.66
2022-08-19T05:54:33.810Z,21.60
2022-08-19T05:55:33.783Z,21.76
2022-08-19T05:56:33.771Z,21.70
2022-08-19T05:57:33.745Z,21.75
2022-08-19T05:58:33.777Z,21.73
2022-08-19T05:59:33.687Z,21.76
2022-08-19T06:00:33.664Z,21.76
2022-08-19T06:01:33.678Z,21.98
2022-08-19T06:02:33.634Z,21.99
2022-08-19T06:03:33.680Z,21.99
2022-08-19T06:04:33.560Z,21.99
2022-08-19T06:05:33.530Z,21.95
2022-08-19T06:06:42.639Z,22.14
2022-08-19T06:07:33.474Z,22.10
2022-08-19T06:08:33.837Z,22.15
2022-08-19T06:09:33.476Z,22.13
2022-08-19T06:10:33.395Z,22.18
2022-08-19T06:11:33.416Z,22.38
2022-08-19T06:12:33.337Z,22.39
2022-08-19T06:13:35.201Z,22.41
2022-08-19T06:14:33.481Z,22.47
2022-08-19T06:15:33.263Z,22.54
2022-08-19T06:16:33.239Z,22.65
2022-08-19T06:17:33.218Z,22.59
2022-08-19T06:18:33.192Z,22.66
2022-08-19T06:19:33.169Z,22.66
2022-08-19T06:20:54.446Z,22.83
2022-08-19T06:21:33.135Z,22.84
2022-08-19T06:22:33.090Z,22.66
2022-08-19T06:23:33.062Z,22.69
2022-08-19T06:24:33.037Z,22.68
2022-08-19T06:25:33.014Z,22.75
2022-08-19T06:26:33.103Z,22.72
2022-08-19T06:27:32.964Z,22.68
2022-08-19T06:28:32.940Z,22.72
2022-08-19T06:29:32.913Z,22.80
2022-08-19T06:30:32.888Z,22.87
2022-08-19T06:31:32.933Z,22.76
2022-08-19T06:32:32.841Z,22.70
2022-08-19T06:33:32.813Z,22.76
2022-08-19T06:34:32.797Z,22.70
2022-08-19T06:35:32.790Z,22.68
2022-08-19T06:36:32.839Z,22.48
2022-08-19T06:37:32.718Z,22.45
2022-08-19T06:38:32.688Z,22.51
2022-08-19T06:39:32.733Z,22.50
2022-08-19T06:40:32.695Z,22.66
2022-08-19T06:41:32.771Z,22.72
2022-08-19T06:42:32.587Z,22.90
2022-08-19T06:43:32.564Z,22.83
2022-08-19T06:44:32.547Z,22.84
2022-08-19T06:45:35.447Z,22.96
2022-08-19T06:46:33.575Z,22.96
2022-08-19T06:47:32.517Z,22.98
2022-08-19T06:48:34.618Z,23.02
2022-08-19T06:49:32.515Z,23.10
2022-08-19T06:50:32.391Z,23.17
2022-08-19T06:52:34.143Z,23.23
2022-08-19T06:53:34.050Z,23.40
2022-08-19T06:54:32.296Z,23.28
2022-08-19T06:55:33.465Z,23.28
2022-08-19T06:56:32.250Z,23.39
2022-08-19T06:57:32.268Z,23.31
2022-08-19T06:58:32.207Z,23.28
2022-08-19T06:59:32.169Z,23.21
2022-08-19T07:01:32.127Z,23.39
2022-08-19T07:02:32.161Z,23.31
2022-08-19T07:03:32.083Z,23.36
2022-08-19T07:04:32.049Z,23.32
2022-08-19T07:05:32.029Z,23.47
2022-08-19T07:06:43.297Z,23.37
2022-08-19T07:07:32.034Z,23.48
2022-08-19T07:08:32.046Z,23.56
2022-08-19T07:09:31.924Z,23.68
2022-08-19T07:10:31.897Z,23.66
2022-08-19T07:11:31.877Z,23.71
2022-08-19T07:12:31.853Z,23.62
2022-08-19T07:13:32.219Z,23.66
2022-08-19T07:14:31.801Z,23.71
2022-08-19T07:15:31.774Z,23.74
2022-08-19T07:16:31.755Z,23.65
2022-08-19T07:17:31.737Z,23.68
2022-08-19T07:18:31.771Z,23.55
2022-08-19T07:19:31.680Z,23.51
2022-08-19T07:20:31.659Z,23.55
2022-08-19T07:21:31.636Z,23.59
2022-08-19T07:22:31.613Z,23.59
2022-08-19T07:23:31.719Z,23.59
2022-08-19T07:24:33.641Z,23.66
2022-08-19T07:25:32.352Z,23.68
2022-08-19T07:26:31.510Z,23.48
2022-08-19T07:27:33.664Z,23.50
2022-08-19T07:28:31.465Z,23.50
2022-08-19T07:29:31.539Z,23.50
2022-08-19T07:30:31.548Z,23.48
2022-08-19T07:31:31.406Z,23.40
2022-08-19T07:32:31.378Z,23.44
2022-08-19T07:33:31.347Z,23.37
2022-08-19T07:34:31.378Z,23.37
2022-08-19T07:35:31.300Z,23.37
2022-08-19T07:36:31.285Z,23.41
2022-08-19T07:37:33.355Z,23.58
2022-08-19T07:38:31.226Z,23.55
2022-08-19T07:39:31.281Z,23.68
2022-08-19T07:40:31.282Z,23.62
2022-08-19T07:41:31.159Z,23.56
2022-08-19T07:42:31.165Z,23.59
2022-08-19T07:43:34.917Z,23.66
2022-08-19T07:44:31.119Z,23.73
2022-08-19T07:45:31.050Z,23.80
2022-08-19T07:46:31.085Z,23.93
2022-08-19T07:47:50.347Z,23.83
2022-08-19T07:48:30.980Z,23.83
2022-08-19T07:49:30.958Z,24.11
2022-08-19T07:50:30.993Z,24.18
2022-08-19T07:51:36.565Z,24.24
2022-08-19T07:52:30.886Z,24.35
2022-08-19T07:53:30.866Z,24.23
2022-08-19T07:54:30.840Z,24.21
2022-08-19T07:55:42.453Z,24.18
2022-08-19T07:56:30.853Z,24.21
2022-08-19T07:57:30.847Z,24.36
2022-08-19T07:58:30.744Z,24.43
2022-08-19T07:59:30.726Z,24.45
2022-08-19T08:00:30.700Z,24.48
2022-08-19T08:01:30.785Z,24.47
2022-08-19T08:02:30.664Z,24.33
2022-08-19T08:03:30.641Z,24.06
2022-08-19T08:04:30.603Z,24.01
2022-08-19T08:05:30.584Z,23.86
2022-08-19T08:06:30.643Z,23.66
2022-08-19T08:07:31.493Z,23.65
2022-08-19T08:08:30.617Z,23.56
2022-08-19T08:09:30.485Z,23.58
2022-08-19T08:10:30.463Z,23.71
2022-08-19T08:11:30.439Z,23.77
2022-08-19T08:12:34.626Z,23.74
2022-08-19T08:13:30.392Z,23.88
2022-08-19T08:14:35.127Z,23.98
2022-08-19T08:15:30.341Z,23.91
2022-08-19T08:16:30.325Z,23.92
2022-08-19T08:17:40.689Z,24.11
2022-08-19T08:18:30.448Z,23.98
2022-08-19T08:19:30.258Z,24.01
2022-08-19T08:20:30.220Z,24.05
2022-08-19T08:21:30.251Z,24.23
2022-08-19T08:22:30.232Z,24.39
2022-08-19T08:23:30.160Z,24.35
2022-08-19T08:24:30.123Z,24.35
2022-08-19T08:25:32.482Z,24.38
2022-08-19T08:26:30.075Z,24.23
2022-08-19T08:27:30.156Z,24.17
2022-08-19T08:28:30.103Z,23.99
2022-08-19T08:29:34.584Z,23.99
2022-08-19T08:30:32.583Z,24.11
2022-08-19T08:31:29.959Z,24.17
2022-08-19T08:32:29.936Z,24.18
2022-08-19T08:33:34.647Z,24.20
2022-08-19T08:34:29.982Z,24.18
2022-08-19T08:35:29.865Z,24.48
2022-08-19T08:36:29.851Z,24.35
2022-08-19T08:37:29.908Z,24.47
2022-08-19T08:38:29.945Z,24.33
2022-08-19T08:39:29.830Z,24.18
2022-08-19T08:40:29.746Z,24.21
2022-08-19T08:41:29.730Z,24.18
2022-08-19T08:42:29.700Z,24.20
2022-08-19T08:43:32.401Z,24.26
2022-08-19T08:44:29.710Z,24.33
2022-08-19T08:45:29.625Z,24.40
2022-08-19T08:46:31.719Z,24.45
2022-08-19T08:47:29.581Z,24.50
2022-08-19T08:48:29.557Z,24.40
2022-08-19T08:49:29.586Z,24.33
2022-08-19T08:50:29.519Z,24.48
2022-08-19T08:51:33.182Z,24.32
2022-08-19T08:52:32.061Z,24.57
2022-08-19T08:53:32.538Z,24.57
2022-08-19T08:54:29.511Z,24.70
2022-08-19T08:55:36.627Z,24.84
2022-08-19T08:57:29.371Z,24.84
2022-08-19T08:58:29.324Z,24.76
2022-08-19T08:59:29.317Z,24.69
2022-08-19T09:00:29.340Z,24.68
2022-08-19T09:01:30.453Z,24.76
2022-08-19T09:02:29.227Z,24.84
2022-08-19T09:03:31.663Z,24.99
2022-08-19T09:04:29.190Z,25.10
2022-08-19T09:05:29.230Z,25.21
2022-08-19T09:06:29.258Z,25.47
2022-08-19T09:07:35.221Z,25.58
2022-08-19T09:08:29.089Z,25.69
2022-08-19T09:09:29.071Z,25.73
2022-08-19T09:10:29.048Z,25.59
2022-08-19T09:11:42.703Z,25.48
2022-08-19T09:12:29.003Z,25.23
2022-08-19T09:13:28.983Z,24.86
2022-08-19T09:14:49.126Z,24.77
2022-08-19T09:15:33.563Z,24.68
2022-08-19T09:16:29.568Z,24.48
2022-08-19T09:17:28.882Z,24.57
2022-08-19T09:18:29.697Z,24.50
2022-08-19T09:19:29.604Z,24.45
2022-08-19T09:20:29.614Z,24.30
2022-08-19T09:21:33.076Z,24.28
2022-08-19T09:22:28.821Z,24.24
2022-08-19T09:23:28.795Z,24.23
2022-08-19T09:24:31.224Z,24.24
2022-08-19T09:25:29.634Z,24.18
2022-08-19T09:26:29.795Z,24.26
2022-08-19T09:27:35.591Z,24.14
2022-08-19T09:28:28.654Z,23.93
2022-08-19T09:29:28.660Z,23.87
2022-08-19T09:30:28.613Z,23.96
2022-08-19T09:31:28.608Z,23.86
2022-08-19T09:32:28.919Z,23.77
2022-08-19T09:33:32.121Z,23.86
2022-08-19T09:34:28.497Z,23.86
2022-08-19T09:35:28.521Z,23.87
2022-08-19T09:36:34.790Z,23.78
2022-08-19T09:37:28.555Z,23.83
2022-08-19T09:38:28.697Z,23.78
2022-08-19T09:39:36.089Z,23.77
2022-08-19T09:40:30.084Z,23.78
2022-08-19T09:41:28.684Z,23.76
2022-08-19T09:42:30.223Z,23.71
2022-08-19T09:43:32.869Z,23.77
2022-08-19T09:44:28.285Z,23.66
2022-08-19T09:45:28.301Z,23.61
2022-08-19T09:46:28.234Z,23.56
2022-08-19T09:47:28.202Z,23.58
2022-08-19T09:48:28.373Z,23.51
2022-08-19T09:49:28.175Z,23.59
2022-08-19T09:50:28.139Z,23.56
2022-08-19T09:51:28.212Z,23.54
2022-08-19T09:52:32.729Z,23.66
2022-08-19T09:53:28.054Z,23.76
2022-08-19T09:54:28.107Z,23.80
2022-08-19T09:55:31.306Z,23.83
2022-08-19T09:56:28.083Z,23.73
2022-08-19T09:57:27.952Z,23.51
2022-08-19T09:58:27.921Z,23.40
2022-08-19T09:59:27.964Z,23.36
2022-08-19T10:00:27.935Z,23.39
2022-08-19T10:01:27.904Z,23.43
2022-08-19T10:02:29.062Z,23.34
2022-08-19T10:03:29.963Z,23.32
2022-08-19T10:04:27.825Z,23.28
2022-08-19T10:05:27.834Z,23.20
2022-08-19T10:06:45.889Z,23.18
2022-08-19T10:07:28.965Z,23.12
2022-08-19T10:08:27.681Z,23.06
2022-08-19T10:09:34.624Z,23.12
2022-08-19T10:10:27.716Z,23.18
2022-08-19T10:11:36.515Z,23.09
2022-08-19T10:12:27.596Z,23.13
2022-08-19T10:13:27.557Z,23.20
2022-08-19T10:14:27.541Z,23.31
2022-08-19T10:15:29.096Z,23.27
2022-08-19T10:16:30.020Z,23.27
2022-08-19T10:17:31.744Z,23.28
2022-08-19T10:18:27.456Z,23.15
2022-08-19T10:19:27.411Z,23.27
2022-08-19T10:20:27.365Z,23.27
2022-08-19T10:21:27.455Z,23.20
2022-08-19T10:22:27.327Z,23.10
2022-08-19T10:23:27.307Z,23.12
2022-08-19T10:24:27.302Z,23.27
2022-08-19T10:25:27.274Z,23.25
2022-08-19T10:26:27.228Z,23.27
2022-08-19T10:27:27.247Z,23.13
2022-08-19T10:28:27.182Z,23.15
2022-08-19T10:29:32.170Z,23.23
2022-08-19T10:30:27.135Z,23.27
2022-08-19T10:31:59.912Z,23.24
2022-08-19T10:32:32.036Z,23.23
2022-08-19T10:33:53.015Z,23.13
2022-08-19T10:34:28.201Z,23.25
2022-08-19T10:35:27.053Z,23.37
2022-08-19T10:36:26.992Z,23.40
2022-08-19T10:37:31.335Z,23.37
2022-08-19T10:38:31.348Z,23.39
2022-08-19T10:39:30.521Z,23.36
2022-08-19T10:40:26.959Z,23.40
2022-08-19T10:41:26.878Z,23.27
2022-08-19T10:42:26.836Z,23.28
2022-08-19T10:43:26.882Z,23.27
2022-08-19T10:44:32.359Z,23.08
2022-08-19T10:45:28.656Z,23.06
2022-08-19T10:46:26.741Z,23.03
2022-08-19T10:47:31.515Z,22.93
2022-08-19T10:48:26.759Z,23.00
2022-08-19T10:49:26.670Z,23.02
2022-08-19T10:50:28.532Z,23.03
2022-08-19T10:51:26.633Z,23.02
2022-08-19T10:52:32.496Z,23.02
2022-08-19T10:53:26.674Z,23.03
2022-08-19T10:54:32.111Z,23.06
2022-08-19T10:55:29.790Z,23.05
2022-08-19T10:56:26.498Z,23.02
2022-08-19T10:57:36.901Z,23.03
2022-08-19T10:58:26.442Z,23.03
2022-08-19T10:59:26.916Z,23.06
2022-08-19T11:00:26.396Z,23.15
2022-08-19T11:01:26.451Z,23.20
2022-08-19T11:02:26.335Z,23.06
2022-08-19T11:03:26.325Z,23.06
2022-08-19T11:04:26.659Z,23.05
2022-08-19T11:05:26.293Z,23.02
2022-08-19T11:06:26.261Z,23.09
2022-08-19T11:07:26.219Z,23.10
2022-08-19T11:08:26.216Z,23.28
2022-08-19T11:09:33.328Z,23.32
2022-08-19T11:10:26.210Z,23.24
2022-08-19T11:11:26.125Z,23.27
2022-08-19T11:12:26.103Z,23.31
2022-08-19T11:13:26.078Z,23.15
2022-08-19T11:14:26.107Z,23.20
2022-08-19T11:15:26.079Z,23.12
2022-08-19T11:16:25.989Z,23.24
2022-08-19T11:17:25.980Z,23.13
2022-08-19T11:18:25.933Z,23.12
2022-08-19T11:19:25.943Z,23.15
2022-08-19T11:20:26.067Z,23.09
2022-08-19T11:21:25.863Z,23.02
2022-08-19T11:22:28.839Z,23.06
2022-08-19T11:23:25.821Z,23.06
2022-08-19T11:24:25.796Z,23.03
2022-08-19T11:25:25.760Z,23.03
2022-08-19T11:26:25.828Z,23.02
2022-08-19T11:27:25.719Z,22.98
2022-08-19T11:28:25.690Z,22.99
2022-08-19T11:29:25.669Z,23.00
2022-08-19T11:30:25.639Z,22.93
2022-08-19T11:31:29.159Z,22.81
2022-08-19T11:32:25.591Z,22.84
2022-08-19T11:33:25.586Z,22.75
2022-08-19T11:34:25.543Z,22.84
2022-08-19T11:35:25.513Z,22.80
2022-08-19T11:36:25.567Z,22.70
2022-08-19T11:37:25.464Z,22.83
2022-08-19T11:38:25.446Z,22.91
2022-08-19T11:39:25.424Z,22.99
2022-08-19T11:40:25.387Z,22.91
2022-08-19T11:41:25.365Z,23.00
2022-08-19T11:42:25.520Z,23.03
2022-08-19T11:43:25.319Z,23.05
2022-08-19T11:44:25.299Z,23.00
2022-08-19T11:45:25.268Z,23.00
2022-08-19T11:46:25.252Z,23.00
2022-08-19T11:47:25.214Z,23.00
2022-08-19T11:48:25.244Z,23.03
2022-08-19T11:49:25.171Z,23.03
2022-08-19T11:50:25.146Z,22.99
2022-08-19T11:51:25.115Z,22.99
2022-08-19T11:52:25.099Z,22.93
2022-08-19T11:53:25.266Z,22.90
2022-08-19T11:54:25.065Z,22.87
2022-08-19T11:55:25.662Z,22.94
2022-08-19T11:56:24.990Z,22.90
2022-08-19T11:57:24.962Z,22.96
2022-08-19T11:58:24.942Z,23.03
2022-08-19T11:59:25.051Z,23.00
2022-08-19T12:00:24.892Z,22.94
2022-08-19T12:01:24.873Z,22.91
2022-08-19T12:02:24.838Z,23.02
2022-08-19T12:03:24.933Z,22.88
2022-08-19T12:04:24.884Z,22.72
2022-08-19T12:05:24.765Z,22.65
2022-08-19T12:06:24.741Z,22.75
2022-08-19T12:07:34.850Z,22.72
2022-08-19T12:08:24.684Z,22.73
2022-08-19T12:09:24.775Z,22.84
2022-08-19T12:10:26.363Z,22.98
2022-08-19T12:11:24.614Z,22.93
2022-08-19T12:12:24.596Z,23.03
2022-08-19T12:13:24.561Z,23.05
2022-08-19T12:14:24.530Z,23.06
2022-08-19T12:15:24.635Z,23.12
2022-08-19T12:16:24.538Z,23.18
2022-08-19T12:17:24.466Z,23.15
2022-08-19T12:18:24.435Z,23.09
2022-08-19T12:19:24.415Z,23.06
2022-08-19T12:20:24.391Z,23.02
2022-08-19T12:21:24.411Z,22.91
2022-08-19T12:22:24.333Z,22.83
2022-08-19T12:23:24.305Z,22.91
2022-08-19T12:24:24.513Z,22.90
2022-08-19T12:25:24.260Z,22.98
2022-08-19T12:26:24.333Z,23.10
2022-08-19T12:27:40.006Z,23.00
2022-08-19T12:28:24.187Z,23.10
2022-08-19T12:29:24.816Z,23.12
2022-08-19T12:30:24.140Z,23.20
2022-08-19T12:31:25.209Z,23.36
2022-08-19T12:32:24.090Z,23.34
2022-08-19T12:33:24.063Z,23.40
2022-08-19T12:34:24.040Z,23.40
2022-08-19T12:35:24.010Z,23.40
2022-08-19T12:36:24.064Z,23.43
2022-08-19T12:37:24.019Z,23.37
2022-08-19T12:38:23.939Z,23.47
2022-08-19T12:39:23.913Z,23.37
2022-08-19T12:40:23.942Z,23.28
2022-08-19T12:41:23.997Z,23.40
2022-08-19T12:42:23.852Z,23.34
2022-08-19T12:43:23.858Z,23.47
2022-08-19T12:44:28.861Z,23.47
2022-08-19T12:45:23.761Z,23.65
2022-08-19T12:46:25.389Z,23.65
2022-08-19T12:47:23.763Z,23.66
2022-08-19T12:48:33.544Z,23.63
2022-08-19T12:49:52.488Z,23.71
2022-08-19T12:50:23.644Z,23.63
2022-08-19T12:51:23.715Z,23.73
2022-08-19T12:52:23.949Z,23.76
2022-08-19T12:53:23.570Z,23.92
2022-08-19T12:54:23.547Z,23.95
2022-08-19T12:55:23.519Z,23.87